Attività con fini culturali e ricreativi - Codice Fiscale 91122750689  


METAR

LIBP 290550Z VRB03KT 9999 FEW030 29/11 Q1003

Ultimi caricamenti...


I-BBPE Babcock AgustaWestland AW169

 


I-BBPE Babcock AgustaWestland AW169

 


I-BBPE Babcock AgustaWestland AW169

Questo sito non utilizza cookie di profilazione. Il sito utilizza cookie tecnici, di analisi anonima di prima parte e di terze parti per servizi di social network.